New Albin, Iowa
Current Conditions -  °F | °C
As of 7:35 AM on Sunday 23 Nov 2014 (Local Time) from KY51 Reporting Station
Overcast Overcast  
Wind Chill: 44°   Ceiling: 300
Heat Index: 48°   Visibility: 2mi
Dew Point: 48°   Wind: 9mph
Humidity: 100%   Direction: 190°S
Pressure: 29.56"   Gusts: NA
Location:  43.5°N, 91.29°W
Report Text: KY51 231335Z AUTO 19008KT 2SM OVC003 09/09 A2956 RMK AO1 T00900090
Loading
Personal Weather Stations






























Interactive Weather Map New forecast layout! Learn more

10-Day Weather Forecast

Advertisements
Track Severe Weather on mobile